EXS52MD LGKO-EGBB
Flight info
| Callsign | EXS52MD |
|---|---|
| Flight time | 3h 39m |
| Altitude | 34000 |
| Route | LARKI UL609 MES DCT DISOR DCT LONTA UL608 DOLEV DCT BOSNA DCT EVAXI DCT ERKIR DCT BABEG DCT LIRSU DCT DENUT L610 HEMEL |
| Aircraft | A21N/M-SDE2E3FGHIRWXY/LB1 |
Departure
| Time | 2026-05-04 14:47 |
|---|---|
| Airport | Kos International Airport "Ippokratis" (LGKO) |
Arrival
| Time | 2026-05-04 18:26 |
|---|---|
| Airport | Birmingham Airport (EGBB) |
| Time | Latitude | Longitude | Altitude | Speed | Heading |
|---|---|---|---|---|---|
| 2026-05-04 14:13 | 36.80010 | 27.09035 | 415 ft | 0 kts | 58° |
| 2026-05-04 14:37 | 36.80007 | 27.09030 | 414 ft | 4 kts | 58° |
| 2026-05-04 14:38 | 36.79993 | 27.09001 | 414 ft | 4 kts | 58° |
| 2026-05-04 14:38 | 36.79980 | 27.08976 | 412 ft | 4 kts | 73° |
| 2026-05-04 14:38 | 36.79983 | 27.08949 | 417 ft | 4 kts | 132° |
| 2026-05-04 14:38 | 36.79999 | 27.08932 | 414 ft | 1 kts | 147° |
| 2026-05-04 14:39 | 36.80002 | 27.08930 | 414 ft | 0 kts | 147° |
| 2026-05-04 14:42 | 36.79983 | 27.08945 | 412 ft | 10 kts | 147° |
| 2026-05-04 14:42 | 36.79870 | 27.08983 | 413 ft | 24 kts | 182° |
| 2026-05-04 14:43 | 36.79661 | 27.08985 | 417 ft | 32 kts | 174° |
| 2026-05-04 14:43 | 36.79473 | 27.09097 | 413 ft | 31 kts | 146° |
| 2026-05-04 14:43 | 36.79282 | 27.09248 | 415 ft | 34 kts | 148° |
| 2026-05-04 14:43 | 36.79075 | 27.09407 | 405 ft | 36 kts | 145° |
| 2026-05-04 14:44 | 36.78881 | 27.09558 | 402 ft | 29 kts | 148° |
| 2026-05-04 14:44 | 36.78725 | 27.09684 | 399 ft | 28 kts | 147° |
| 2026-05-04 14:44 | 36.78616 | 27.09780 | 396 ft | 7 kts | 124° |
| 2026-05-04 14:44 | 36.78578 | 27.09822 | 394 ft | 9 kts | 194° |
| 2026-05-04 14:45 | 36.78620 | 27.09765 | 397 ft | 13 kts | 332° |
| 2026-05-04 14:45 | 36.78704 | 27.09699 | 399 ft | 15 kts | 328° |
| 2026-05-04 14:45 | 36.78710 | 27.09695 | 399 ft | 0 kts | 328° |
| 2026-05-04 14:46 | 36.78714 | 27.09692 | 399 ft | 6 kts | 328° |
| 2026-05-04 14:47 | 36.78913 | 27.09538 | 402 ft | 71 kts | 328° |
| 2026-05-04 14:47 | 36.79536 | 27.09054 | 421 ft | 137 kts | 328° |
| 2026-05-04 14:47 | 36.80490 | 27.08317 | 571 ft | 173 kts | 328° |
| 2026-05-04 14:47 | 36.81430 | 27.07407 | 1251 ft | 169 kts | 308° |
| 2026-05-04 14:48 | 36.81932 | 27.06118 | 1927 ft | 166 kts | 285° |
| 2026-05-04 14:48 | 36.82142 | 27.04678 | 2387 ft | 176 kts | 268° |
| 2026-05-04 14:48 | 36.82149 | 27.03103 | 2781 ft | 188 kts | 280° |
| 2026-05-04 14:48 | 36.82686 | 27.01555 | 3177 ft | 204 kts | 302° |
| 2026-05-04 14:49 | 36.83491 | 27.00011 | 3689 ft | 219 kts | 302° |
| 2026-05-04 14:49 | 36.84358 | 26.98323 | 4023 ft | 244 kts | 302° |
| 2026-05-04 14:49 | 36.85306 | 26.96461 | 4507 ft | 260 kts | 302° |
| 2026-05-04 14:49 | 36.86287 | 26.94527 | 5232 ft | 266 kts | 302° |
| 2026-05-04 14:50 | 36.87282 | 26.92564 | 6014 ft | 269 kts | 302° |
| 2026-05-04 14:50 | 36.88267 | 26.90602 | 6776 ft | 272 kts | 302° |
| 2026-05-04 14:50 | 36.89278 | 26.88592 | 7543 ft | 275 kts | 302° |
| 2026-05-04 14:50 | 36.90302 | 26.86556 | 8317 ft | 278 kts | 302° |
| 2026-05-04 14:51 | 36.91336 | 26.84497 | 9085 ft | 281 kts | 302° |
| 2026-05-04 14:51 | 36.92382 | 26.82413 | 9839 ft | 285 kts | 302° |
| 2026-05-04 14:51 | 36.93458 | 26.80277 | 10366 ft | 299 kts | 302° |
| 2026-05-04 14:51 | 36.94609 | 26.78014 | 10671 ft | 319 kts | 302° |
| 2026-05-04 14:52 | 36.95820 | 26.75588 | 10952 ft | 339 kts | 301° |
| 2026-05-04 14:52 | 36.97218 | 26.73127 | 11194 ft | 358 kts | 314° |
| 2026-05-04 14:52 | 36.99280 | 26.71269 | 11438 ft | 375 kts | 334° |
| 2026-05-04 14:52 | 37.01830 | 26.70366 | 11660 ft | 391 kts | 354° |
| 2026-05-04 14:53 | 37.04568 | 26.70612 | 11991 ft | 400 kts | 14° |
| 2026-05-04 14:53 | 37.07114 | 26.72030 | 12461 ft | 404 kts | 34° |
| 2026-05-04 14:53 | 37.09186 | 26.74411 | 12937 ft | 407 kts | 48° |
| 2026-05-04 14:53 | 37.11312 | 26.76763 | 13429 ft | 410 kts | 36° |
| 2026-05-04 14:54 | 37.13796 | 26.78517 | 13906 ft | 412 kts | 21° |
| 2026-05-04 14:54 | 37.16581 | 26.79342 | 14323 ft | 414 kts | 4° |
| 2026-05-04 14:54 | 37.19455 | 26.79114 | 14737 ft | 416 kts | 347° |
| 2026-05-04 14:54 | 37.22162 | 26.77842 | 15185 ft | 418 kts | 330° |
| 2026-05-04 14:55 | 37.24538 | 26.75732 | 15633 ft | 420 kts | 321° |
| 2026-05-04 14:55 | 37.26815 | 26.73416 | 16036 ft | 423 kts | 320° |
| 2026-05-04 14:55 | 37.29108 | 26.71081 | 16393 ft | 425 kts | 321° |
| 2026-05-04 14:55 | 37.31421 | 26.68757 | 16739 ft | 427 kts | 321° |
| 2026-05-04 14:56 | 37.33756 | 26.66422 | 17082 ft | 430 kts | 321° |
| 2026-05-04 14:56 | 37.36109 | 26.64085 | 17426 ft | 432 kts | 321° |
| 2026-05-04 14:56 | 37.38467 | 26.61735 | 17749 ft | 434 kts | 321° |
| 2026-05-04 14:56 | 37.40834 | 26.59367 | 18081 ft | 436 kts | 321° |
| 2026-05-04 14:57 | 37.43208 | 26.56983 | 18395 ft | 438 kts | 321° |
| 2026-05-04 14:57 | 37.45601 | 26.54590 | 18721 ft | 440 kts | 321° |
| 2026-05-04 14:57 | 37.48004 | 26.52186 | 19037 ft | 442 kts | 321° |
| 2026-05-04 14:57 | 37.50414 | 26.49765 | 19359 ft | 444 kts | 321° |
| 2026-05-04 14:58 | 37.52835 | 26.47332 | 19698 ft | 446 kts | 321° |
| 2026-05-04 14:58 | 37.55272 | 26.44892 | 20032 ft | 448 kts | 321° |
| 2026-05-04 14:58 | 37.57719 | 26.42438 | 20341 ft | 451 kts | 321° |
| 2026-05-04 14:58 | 37.60176 | 26.39966 | 20664 ft | 453 kts | 321° |
| 2026-05-04 14:59 | 37.62650 | 26.37488 | 21024 ft | 455 kts | 321° |
| 2026-05-04 14:59 | 37.65129 | 26.34996 | 21411 ft | 458 kts | 321° |
| 2026-05-04 14:59 | 37.70140 | 26.29958 | 22158 ft | 462 kts | 321° |
| 2026-05-04 15:00 | 37.72637 | 26.27428 | 22770 ft | 457 kts | 321° |
| 2026-05-04 15:00 | 37.75053 | 26.24988 | 23512 ft | 438 kts | 321° |
| 2026-05-04 15:00 | 37.77360 | 26.22659 | 24256 ft | 407 kts | 321° |
| 2026-05-04 15:01 | 37.81742 | 26.18214 | 25187 ft | 408 kts | 321° |
| 2026-05-04 15:01 | 37.83969 | 26.15962 | 25586 ft | 411 kts | 321° |
| 2026-05-04 15:01 | 37.86205 | 26.13695 | 25966 ft | 413 kts | 321° |
| 2026-05-04 15:01 | 37.88454 | 26.11416 | 26341 ft | 416 kts | 321° |
| 2026-05-04 15:02 | 37.90712 | 26.09122 | 26693 ft | 418 kts | 321° |
| 2026-05-04 15:02 | 37.92986 | 26.06810 | 27041 ft | 420 kts | 321° |
| 2026-05-04 15:02 | 37.95272 | 26.04487 | 27376 ft | 422 kts | 321° |
| 2026-05-04 15:02 | 37.97568 | 26.02150 | 27701 ft | 424 kts | 321° |
| 2026-05-04 15:03 | 37.99878 | 25.99803 | 28013 ft | 427 kts | 321° |
| 2026-05-04 15:03 | 38.02197 | 25.97438 | 28318 ft | 429 kts | 321° |
| 2026-05-04 15:03 | 38.04523 | 25.95059 | 28618 ft | 431 kts | 321° |
| 2026-05-04 15:03 | 38.06858 | 25.92669 | 28909 ft | 433 kts | 321° |
| 2026-05-04 15:04 | 38.09211 | 25.90266 | 29196 ft | 435 kts | 321° |
| 2026-05-04 15:04 | 38.11570 | 25.87853 | 29476 ft | 437 kts | 321° |
| 2026-05-04 15:04 | 38.13939 | 25.85428 | 29747 ft | 438 kts | 321° |
| 2026-05-04 15:04 | 38.16318 | 25.82998 | 30018 ft | 440 kts | 321° |
| 2026-05-04 15:05 | 38.18709 | 25.80550 | 30276 ft | 442 kts | 321° |
| 2026-05-04 15:05 | 38.21104 | 25.78088 | 30541 ft | 444 kts | 321° |
| 2026-05-04 15:05 | 38.23509 | 25.75608 | 30800 ft | 446 kts | 321° |
| 2026-05-04 15:05 | 38.25917 | 25.73117 | 31038 ft | 447 kts | 321° |
| 2026-05-04 15:06 | 38.28307 | 25.70654 | 31320 ft | 448 kts | 321° |
| 2026-05-04 15:06 | 38.30725 | 25.68167 | 31641 ft | 447 kts | 321° |
| 2026-05-04 15:06 | 38.33173 | 25.65644 | 31951 ft | 446 kts | 321° |
| 2026-05-04 15:07 | 38.37961 | 25.60709 | 32534 ft | 445 kts | 321° |
| 2026-05-04 15:07 | 38.40367 | 25.58224 | 32808 ft | 445 kts | 321° |
| 2026-05-04 15:07 | 38.42794 | 25.55702 | 33074 ft | 444 kts | 320° |
| 2026-05-04 15:07 | 38.45158 | 25.53246 | 33323 ft | 444 kts | 320° |
| 2026-05-04 15:08 | 38.47548 | 25.50762 | 33569 ft | 443 kts | 321° |
| 2026-05-04 15:08 | 38.49946 | 25.48289 | 33802 ft | 443 kts | 321° |
| 2026-05-04 15:08 | 38.52341 | 25.45823 | 33995 ft | 443 kts | 321° |
| 2026-05-04 15:09 | 38.57133 | 25.40856 | 34022 ft | 443 kts | 320° |
| 2026-05-04 15:09 | 38.61903 | 25.35883 | 34007 ft | 443 kts | 320° |
| 2026-05-04 15:10 | 38.69059 | 25.28410 | 34003 ft | 443 kts | 320° |
| 2026-05-04 15:11 | 38.76214 | 25.20923 | 34002 ft | 443 kts | 320° |
| 2026-05-04 15:11 | 38.80206 | 25.16734 | 34002 ft | 443 kts | 320° |
| 2026-05-04 15:12 | 38.84970 | 25.11727 | 34002 ft | 443 kts | 320° |
| 2026-05-04 15:12 | 38.89734 | 25.06711 | 34001 ft | 443 kts | 320° |
| 2026-05-04 15:13 | 38.94492 | 25.01695 | 34002 ft | 443 kts | 320° |
| 2026-05-04 15:13 | 38.99250 | 24.96668 | 34001 ft | 443 kts | 320° |
| 2026-05-04 15:14 | 39.04013 | 24.91627 | 34289 ft | 443 kts | 320° |
| 2026-05-04 15:14 | 39.06391 | 24.89102 | 34487 ft | 443 kts | 320° |
| 2026-05-04 15:14 | 39.08772 | 24.86577 | 34655 ft | 444 kts | 320° |
| 2026-05-04 15:14 | 39.11154 | 24.84043 | 34801 ft | 444 kts | 320° |
| 2026-05-04 15:15 | 39.13530 | 24.81497 | 34956 ft | 445 kts | 320° |
| 2026-05-04 15:15 | 39.15909 | 24.78948 | 35098 ft | 446 kts | 320° |
| 2026-05-04 15:15 | 39.18300 | 24.76397 | 35231 ft | 446 kts | 320° |
| 2026-05-04 15:16 | 39.23087 | 24.71293 | 35504 ft | 447 kts | 320° |
| 2026-05-04 15:16 | 39.25477 | 24.68743 | 35646 ft | 447 kts | 320° |
| 2026-05-04 15:16 | 39.30262 | 24.63631 | 35920 ft | 446 kts | 320° |
| 2026-05-04 15:17 | 39.32652 | 24.61074 | 36020 ft | 447 kts | 320° |
| 2026-05-04 15:17 | 39.39799 | 24.53432 | 36008 ft | 446 kts | 320° |
| 2026-05-04 15:18 | 39.44578 | 24.48305 | 36002 ft | 446 kts | 320° |
| 2026-05-04 15:19 | 39.51719 | 24.40559 | 36001 ft | 446 kts | 320° |
| 2026-05-04 15:19 | 39.58882 | 24.32825 | 36003 ft | 448 kts | 320° |
| 2026-05-04 15:20 | 39.63653 | 24.27663 | 35998 ft | 446 kts | 320° |
| 2026-05-04 15:20 | 39.68434 | 24.22494 | 36002 ft | 446 kts | 320° |
| 2026-05-04 15:21 | 39.73204 | 24.17330 | 36000 ft | 447 kts | 320° |
| 2026-05-04 15:22 | 39.80350 | 24.09557 | 36001 ft | 447 kts | 320° |
| 2026-05-04 15:22 | 39.87487 | 24.01745 | 35999 ft | 446 kts | 320° |
| 2026-05-04 15:23 | 39.92245 | 23.96531 | 36005 ft | 447 kts | 320° |
| 2026-05-04 15:23 | 39.97003 | 23.91305 | 36004 ft | 447 kts | 320° |
| 2026-05-04 15:24 | 40.06521 | 23.80853 | 35998 ft | 448 kts | 320° |
| 2026-05-04 15:25 | 40.11270 | 23.75603 | 36001 ft | 447 kts | 319° |
| 2026-05-04 15:26 | 40.18378 | 23.67730 | 36001 ft | 446 kts | 319° |
| 2026-05-04 15:26 | 40.25483 | 23.59843 | 36000 ft | 447 kts | 319° |
| 2026-05-04 15:27 | 40.32612 | 23.51922 | 35997 ft | 449 kts | 319° |
| 2026-05-04 15:28 | 40.39776 | 23.43934 | 36000 ft | 451 kts | 319° |
| 2026-05-04 15:29 | 40.46923 | 23.35935 | 36007 ft | 451 kts | 319° |
| 2026-05-04 15:30 | 40.63537 | 23.17265 | 36005 ft | 448 kts | 319° |
| 2026-05-04 15:31 | 40.70622 | 23.09259 | 36003 ft | 447 kts | 319° |
| 2026-05-04 15:32 | 40.82426 | 22.95874 | 36003 ft | 450 kts | 319° |
| 2026-05-04 15:34 | 40.94222 | 22.82423 | 36394 ft | 447 kts | 319° |
| 2026-05-04 15:34 | 40.96578 | 22.79734 | 36510 ft | 447 kts | 319° |
| 2026-05-04 15:34 | 41.01280 | 22.74353 | 36744 ft | 447 kts | 319° |
| 2026-05-04 15:35 | 41.05979 | 22.68961 | 36962 ft | 447 kts | 319° |
| 2026-05-04 15:35 | 41.08329 | 22.66266 | 37076 ft | 446 kts | 319° |
| 2026-05-04 15:36 | 41.15369 | 22.58166 | 37345 ft | 447 kts | 319° |
| 2026-05-04 15:36 | 41.17717 | 22.55458 | 37447 ft | 447 kts | 319° |
| 2026-05-04 15:36 | 41.20056 | 22.52757 | 37548 ft | 447 kts | 319° |
| 2026-05-04 15:37 | 41.24742 | 22.47338 | 37691 ft | 447 kts | 319° |
| 2026-05-04 15:37 | 41.29449 | 22.41882 | 37786 ft | 449 kts | 319° |
| 2026-05-04 15:38 | 41.34165 | 22.36409 | 37868 ft | 451 kts | 319° |
| 2026-05-04 15:38 | 41.38896 | 22.30910 | 37962 ft | 452 kts | 319° |
| 2026-05-04 15:39 | 41.43633 | 22.25395 | 38008 ft | 453 kts | 319° |
| 2026-05-04 15:40 | 41.50751 | 22.17081 | 38002 ft | 453 kts | 319° |
| 2026-05-04 15:40 | 41.55489 | 22.11533 | 38001 ft | 453 kts | 318° |
| 2026-05-04 15:41 | 41.60225 | 22.05978 | 38001 ft | 453 kts | 318° |
| 2026-05-04 15:41 | 41.64942 | 22.00434 | 38004 ft | 455 kts | 318° |
| 2026-05-04 15:42 | 41.69677 | 21.94856 | 37999 ft | 453 kts | 318° |
| 2026-05-04 15:42 | 41.74418 | 21.89255 | 38004 ft | 456 kts | 318° |
| 2026-05-04 15:43 | 41.79141 | 21.83640 | 38000 ft | 454 kts | 318° |
| 2026-05-04 15:43 | 41.83873 | 21.78014 | 38001 ft | 454 kts | 318° |
| 2026-05-04 15:44 | 41.88623 | 21.72384 | 38003 ft | 457 kts | 318° |
| 2026-05-04 15:44 | 41.93357 | 21.66752 | 38000 ft | 454 kts | 318° |
| 2026-05-04 15:45 | 41.98070 | 21.61122 | 38000 ft | 453 kts | 318° |
| 2026-05-04 15:45 | 42.02784 | 21.55489 | 38002 ft | 453 kts | 318° |
| 2026-05-04 15:46 | 42.07499 | 21.49838 | 38002 ft | 455 kts | 318° |
| 2026-05-04 15:46 | 42.12243 | 21.44166 | 38002 ft | 456 kts | 318° |
| 2026-05-04 15:47 | 42.16863 | 21.38292 | 37999 ft | 458 kts | 311° |
| 2026-05-04 15:47 | 42.21010 | 21.31748 | 38002 ft | 458 kts | 310° |
| 2026-05-04 15:48 | 42.25113 | 21.25201 | 38003 ft | 456 kts | 310° |
| 2026-05-04 15:48 | 42.31257 | 21.15423 | 38003 ft | 456 kts | 310° |
| 2026-05-04 15:49 | 42.35356 | 21.08880 | 38002 ft | 456 kts | 310° |
| 2026-05-04 15:49 | 42.39450 | 21.02329 | 38001 ft | 455 kts | 310° |
| 2026-05-04 15:50 | 42.43551 | 20.95761 | 38002 ft | 458 kts | 310° |
| 2026-05-04 15:50 | 42.47651 | 20.89175 | 38001 ft | 458 kts | 310° |
| 2026-05-04 15:51 | 42.51741 | 20.82579 | 38001 ft | 456 kts | 310° |
| 2026-05-04 15:51 | 42.55813 | 20.76012 | 38001 ft | 454 kts | 310° |
| 2026-05-04 15:52 | 42.59880 | 20.69441 | 38001 ft | 454 kts | 310° |
| 2026-05-04 15:52 | 42.63936 | 20.62863 | 38001 ft | 453 kts | 310° |
| 2026-05-04 15:53 | 42.67989 | 20.56282 | 38003 ft | 454 kts | 309° |
| 2026-05-04 15:53 | 42.72004 | 20.49742 | 38002 ft | 455 kts | 309° |
| 2026-05-04 15:54 | 42.76044 | 20.43154 | 38001 ft | 453 kts | 309° |
| 2026-05-04 15:54 | 42.80097 | 20.36534 | 37997 ft | 457 kts | 309° |
| 2026-05-04 15:55 | 42.84170 | 20.29856 | 38004 ft | 460 kts | 310° |
| 2026-05-04 15:55 | 42.88326 | 20.23238 | 38003 ft | 457 kts | 310° |
| 2026-05-04 15:56 | 42.91796 | 20.17719 | 38001 ft | 459 kts | 310° |
| 2026-05-04 15:56 | 42.95911 | 20.11146 | 37999 ft | 459 kts | 310° |
| 2026-05-04 15:57 | 43.00065 | 20.04488 | 38004 ft | 461 kts | 310° |
| 2026-05-04 15:57 | 43.04201 | 19.97847 | 38001 ft | 458 kts | 310° |
| 2026-05-04 15:58 | 43.08335 | 19.91202 | 38000 ft | 457 kts | 310° |
| 2026-05-04 15:58 | 43.12451 | 19.84550 | 38002 ft | 459 kts | 310° |
| 2026-05-04 15:59 | 43.16564 | 19.77900 | 38000 ft | 456 kts | 310° |
| 2026-05-04 15:59 | 43.20650 | 19.71269 | 38002 ft | 456 kts | 310° |
| 2026-05-04 16:00 | 43.24736 | 19.64636 | 38001 ft | 455 kts | 310° |
| 2026-05-04 16:00 | 43.28830 | 19.57973 | 38001 ft | 457 kts | 310° |
| 2026-05-04 16:01 | 43.32925 | 19.51282 | 38002 ft | 459 kts | 309° |
| 2026-05-04 16:01 | 43.37022 | 19.44564 | 38001 ft | 458 kts | 310° |
| 2026-05-04 16:02 | 43.41129 | 19.37846 | 38001 ft | 457 kts | 310° |
| 2026-05-04 16:03 | 43.47260 | 19.27767 | 38000 ft | 455 kts | 309° |
| 2026-05-04 16:03 | 43.51311 | 19.21088 | 38000 ft | 455 kts | 309° |
| 2026-05-04 16:04 | 43.55385 | 19.14367 | 38005 ft | 458 kts | 309° |
| 2026-05-04 16:04 | 43.61482 | 19.04257 | 38004 ft | 456 kts | 309° |
| 2026-05-04 16:05 | 43.65492 | 18.97594 | 38000 ft | 453 kts | 309° |
| 2026-05-04 16:06 | 43.71506 | 18.87498 | 37999 ft | 455 kts | 309° |
| 2026-05-04 16:07 | 43.79580 | 18.74007 | 38001 ft | 454 kts | 309° |
| 2026-05-04 16:08 | 43.87653 | 18.60440 | 38006 ft | 457 kts | 309° |
| 2026-05-04 16:09 | 43.97719 | 18.43379 | 38002 ft | 458 kts | 309° |
| 2026-05-04 16:10 | 44.05723 | 18.29736 | 38005 ft | 455 kts | 309° |
| 2026-05-04 16:11 | 44.13700 | 18.16125 | 38002 ft | 453 kts | 309° |
| 2026-05-04 16:12 | 44.25627 | 17.95663 | 38002 ft | 454 kts | 309° |
| 2026-05-04 16:13 | 44.33535 | 17.81986 | 38000 ft | 454 kts | 308° |
| 2026-05-04 16:14 | 44.41655 | 17.68331 | 38002 ft | 458 kts | 310° |
| 2026-05-04 16:16 | 44.51899 | 17.51500 | 38002 ft | 453 kts | 310° |
| 2026-05-04 16:17 | 44.62052 | 17.34718 | 38002 ft | 452 kts | 310° |
| 2026-05-04 16:18 | 44.70134 | 17.21273 | 38001 ft | 450 kts | 310° |
| 2026-05-04 16:19 | 44.80192 | 17.04447 | 38002 ft | 450 kts | 310° |
| 2026-05-04 16:20 | 44.90203 | 16.87584 | 38002 ft | 448 kts | 309° |
| 2026-05-04 16:22 | 45.00185 | 16.70689 | 38002 ft | 448 kts | 309° |
| 2026-05-04 16:23 | 45.12146 | 16.50300 | 38001 ft | 449 kts | 309° |
| 2026-05-04 16:25 | 45.24079 | 16.29820 | 38002 ft | 450 kts | 309° |
| 2026-05-04 16:26 | 45.37899 | 16.05908 | 38002 ft | 448 kts | 309° |
| 2026-05-04 16:28 | 45.47762 | 15.88770 | 38001 ft | 447 kts | 309° |
| 2026-05-04 16:29 | 45.61500 | 15.64666 | 38002 ft | 447 kts | 309° |
| 2026-05-04 16:31 | 45.71288 | 15.47368 | 38002 ft | 448 kts | 309° |
| 2026-05-04 16:32 | 45.83036 | 15.26447 | 38000 ft | 447 kts | 308° |
| 2026-05-04 16:33 | 45.90805 | 15.12523 | 38002 ft | 449 kts | 308° |
| 2026-05-04 16:34 | 45.96645 | 15.02016 | 38001 ft | 448 kts | 308° |
| 2026-05-04 16:35 | 46.08280 | 14.80905 | 38001 ft | 448 kts | 308° |
| 2026-05-04 16:36 | 46.14090 | 14.70337 | 38002 ft | 448 kts | 308° |
| 2026-05-04 16:37 | 46.19904 | 14.59768 | 38002 ft | 448 kts | 308° |
| 2026-05-04 16:38 | 46.27612 | 14.45604 | 38001 ft | 449 kts | 308° |
| 2026-05-04 16:39 | 46.33419 | 14.34919 | 37689 ft | 454 kts | 308° |
| 2026-05-04 16:39 | 46.37315 | 14.27707 | 37178 ft | 453 kts | 308° |
| 2026-05-04 16:40 | 46.41197 | 14.20507 | 37330 ft | 454 kts | 308° |
| 2026-05-04 16:40 | 46.45079 | 14.13287 | 37556 ft | 454 kts | 308° |
| 2026-05-04 16:41 | 46.48957 | 14.06075 | 37804 ft | 453 kts | 308° |
| 2026-05-04 16:41 | 46.54750 | 13.95244 | 38030 ft | 452 kts | 307° |
| 2026-05-04 16:43 | 46.64301 | 13.77294 | 38004 ft | 451 kts | 307° |
| 2026-05-04 16:43 | 46.70029 | 13.66471 | 38002 ft | 449 kts | 307° |
| 2026-05-04 16:45 | 46.80775 | 13.45978 | 38002 ft | 449 kts | 307° |
| 2026-05-04 16:46 | 46.90166 | 13.27651 | 38001 ft | 453 kts | 307° |
| 2026-05-04 16:47 | 46.97708 | 13.12896 | 37997 ft | 455 kts | 307° |
| 2026-05-04 16:48 | 47.05326 | 12.97931 | 38005 ft | 460 kts | 307° |
| 2026-05-04 16:49 | 47.13015 | 12.82835 | 38001 ft | 461 kts | 306° |
| 2026-05-04 16:50 | 47.20606 | 12.67757 | 38000 ft | 459 kts | 306° |
| 2026-05-04 16:51 | 47.26271 | 12.56453 | 38012 ft | 456 kts | 306° |
| 2026-05-04 16:52 | 47.33733 | 12.41467 | 38009 ft | 456 kts | 306° |
| 2026-05-04 16:53 | 47.39342 | 12.30144 | 38009 ft | 455 kts | 306° |
| 2026-05-04 16:54 | 47.46795 | 12.15081 | 38019 ft | 452 kts | 306° |
| 2026-05-04 16:55 | 47.57929 | 11.92612 | 38002 ft | 456 kts | 307° |
| 2026-05-04 16:56 | 47.67376 | 11.73832 | 38005 ft | 453 kts | 306° |
| 2026-05-04 16:57 | 47.73007 | 11.62548 | 38001 ft | 454 kts | 306° |
| 2026-05-04 16:58 | 47.80465 | 11.47540 | 38020 ft | 450 kts | 306° |
| 2026-05-04 17:00 | 47.91546 | 11.25058 | 38029 ft | 450 kts | 306° |
| 2026-05-04 17:01 | 48.00774 | 11.06214 | 38026 ft | 449 kts | 306° |
| 2026-05-04 17:02 | 48.08131 | 10.91094 | 38011 ft | 450 kts | 306° |
| 2026-05-04 17:03 | 48.13639 | 10.79719 | 38003 ft | 450 kts | 306° |
| 2026-05-04 17:03 | 48.19127 | 10.68331 | 38001 ft | 450 kts | 306° |
| 2026-05-04 17:04 | 48.26405 | 10.53157 | 38001 ft | 449 kts | 306° |
| 2026-05-04 17:05 | 48.33681 | 10.37876 | 38001 ft | 449 kts | 305° |
| 2026-05-04 17:06 | 48.39085 | 10.26444 | 38002 ft | 449 kts | 305° |
| 2026-05-04 17:07 | 48.43938 | 10.16190 | 38001 ft | 449 kts | 305° |
| 2026-05-04 17:07 | 48.48141 | 10.07290 | 38002 ft | 449 kts | 305° |
| 2026-05-04 17:08 | 48.53563 | 9.95747 | 38001 ft | 450 kts | 305° |
| 2026-05-04 17:09 | 48.57174 | 9.88036 | 38001 ft | 450 kts | 305° |
| 2026-05-04 17:09 | 48.60783 | 9.80313 | 38003 ft | 450 kts | 305° |
| 2026-05-04 17:10 | 48.69881 | 9.61145 | 38007 ft | 448 kts | 307° |
| 2026-05-04 17:11 | 48.73694 | 9.53508 | 38002 ft | 448 kts | 307° |
| 2026-05-04 17:12 | 48.79244 | 9.42335 | 38008 ft | 449 kts | 307° |
| 2026-05-04 17:13 | 48.88610 | 9.23388 | 38007 ft | 447 kts | 307° |
| 2026-05-04 17:14 | 48.96060 | 9.08221 | 38003 ft | 447 kts | 306° |
| 2026-05-04 17:15 | 49.01634 | 8.96815 | 38003 ft | 448 kts | 306° |
| 2026-05-04 17:16 | 49.09055 | 8.81557 | 38001 ft | 447 kts | 306° |
| 2026-05-04 17:17 | 49.16442 | 8.66282 | 38001 ft | 447 kts | 306° |
| 2026-05-04 17:18 | 49.23801 | 8.50961 | 38002 ft | 447 kts | 306° |
| 2026-05-04 17:19 | 49.31136 | 8.35609 | 38001 ft | 447 kts | 306° |
| 2026-05-04 17:20 | 49.38405 | 8.20248 | 38001 ft | 447 kts | 306° |
| 2026-05-04 17:20 | 49.43892 | 8.08632 | 38003 ft | 448 kts | 306° |
| 2026-05-04 17:21 | 49.51243 | 7.93082 | 38002 ft | 448 kts | 306° |
| 2026-05-04 17:22 | 49.54888 | 7.85305 | 38002 ft | 448 kts | 306° |
| 2026-05-04 17:23 | 49.62164 | 7.69722 | 38002 ft | 448 kts | 305° |
| 2026-05-04 17:24 | 49.67595 | 7.58011 | 38001 ft | 448 kts | 305° |
| 2026-05-04 17:25 | 49.74832 | 7.42333 | 38002 ft | 448 kts | 305° |
| 2026-05-04 17:26 | 49.81451 | 7.27924 | 38000 ft | 449 kts | 305° |
| 2026-05-04 17:27 | 49.90464 | 7.08151 | 38004 ft | 448 kts | 305° |
| 2026-05-04 17:28 | 49.97615 | 6.92346 | 38003 ft | 447 kts | 304° |
| 2026-05-04 17:29 | 50.08331 | 6.68529 | 38003 ft | 449 kts | 304° |
| 2026-05-04 17:31 | 50.17224 | 6.48530 | 38003 ft | 449 kts | 304° |
| 2026-05-04 17:32 | 50.25544 | 6.27892 | 38003 ft | 449 kts | 301° |
| 2026-05-04 17:33 | 50.32048 | 6.11290 | 38002 ft | 449 kts | 301° |
| 2026-05-04 17:34 | 50.38560 | 5.94602 | 38003 ft | 449 kts | 301° |
| 2026-05-04 17:35 | 50.46676 | 5.73635 | 38003 ft | 448 kts | 301° |
| 2026-05-04 17:36 | 50.49894 | 5.65260 | 37997 ft | 447 kts | 301° |
| 2026-05-04 17:36 | 50.53082 | 5.56945 | 38003 ft | 447 kts | 301° |
| 2026-05-04 17:37 | 50.56280 | 5.48577 | 38001 ft | 447 kts | 301° |
| 2026-05-04 17:37 | 50.59475 | 5.40193 | 38002 ft | 447 kts | 301° |
| 2026-05-04 17:38 | 50.62658 | 5.31785 | 38002 ft | 447 kts | 301° |
| 2026-05-04 17:38 | 50.65842 | 5.23382 | 38002 ft | 447 kts | 301° |
| 2026-05-04 17:39 | 50.70591 | 5.10746 | 38002 ft | 447 kts | 300° |
| 2026-05-04 17:39 | 50.73765 | 5.02313 | 38002 ft | 446 kts | 300° |
| 2026-05-04 17:40 | 50.76926 | 4.93886 | 38003 ft | 446 kts | 300° |
| 2026-05-04 17:40 | 50.80066 | 4.85432 | 38001 ft | 446 kts | 300° |
| 2026-05-04 17:41 | 50.83209 | 4.76962 | 38001 ft | 446 kts | 300° |
| 2026-05-04 17:41 | 50.86350 | 4.68508 | 38002 ft | 446 kts | 300° |
| 2026-05-04 17:42 | 50.89471 | 4.60020 | 38003 ft | 446 kts | 300° |
| 2026-05-04 17:42 | 50.92598 | 4.51524 | 38001 ft | 446 kts | 300° |
| 2026-05-04 17:43 | 50.95723 | 4.43025 | 38001 ft | 446 kts | 300° |
| 2026-05-04 17:43 | 50.98839 | 4.34498 | 38001 ft | 446 kts | 300° |
| 2026-05-04 17:44 | 51.01938 | 4.25983 | 38001 ft | 446 kts | 300° |
| 2026-05-04 17:44 | 51.05032 | 4.17442 | 38002 ft | 446 kts | 300° |
| 2026-05-04 17:45 | 51.08127 | 4.08909 | 38002 ft | 446 kts | 300° |
| 2026-05-04 17:45 | 51.11210 | 4.00356 | 38002 ft | 446 kts | 300° |
| 2026-05-04 17:46 | 51.14288 | 3.91783 | 38002 ft | 446 kts | 300° |
| 2026-05-04 17:46 | 51.17363 | 3.83214 | 38002 ft | 446 kts | 300° |
| 2026-05-04 17:47 | 51.20434 | 3.74628 | 38003 ft | 446 kts | 299° |
| 2026-05-04 17:47 | 51.23344 | 3.65912 | 37997 ft | 445 kts | 291° |
| 2026-05-04 17:48 | 51.24909 | 3.56359 | 38005 ft | 445 kts | 281° |
| 2026-05-04 17:48 | 51.26144 | 3.46670 | 38003 ft | 445 kts | 281° |
| 2026-05-04 17:49 | 51.27407 | 3.36985 | 38001 ft | 445 kts | 281° |
| 2026-05-04 17:49 | 51.28645 | 3.27293 | 38001 ft | 445 kts | 281° |
| 2026-05-04 17:50 | 51.29887 | 3.17603 | 38002 ft | 445 kts | 281° |
| 2026-05-04 17:50 | 51.31118 | 3.07899 | 38001 ft | 445 kts | 281° |
| 2026-05-04 17:51 | 51.32335 | 2.98257 | 38001 ft | 445 kts | 281° |
| 2026-05-04 17:51 | 51.33553 | 2.88551 | 38001 ft | 445 kts | 281° |
| 2026-05-04 17:52 | 51.34763 | 2.78824 | 38001 ft | 445 kts | 281° |
| 2026-05-04 17:52 | 51.35955 | 2.69107 | 38002 ft | 445 kts | 281° |
| 2026-05-04 17:53 | 51.37164 | 2.59376 | 38002 ft | 445 kts | 281° |
| 2026-05-04 17:53 | 51.38359 | 2.49652 | 38002 ft | 445 kts | 281° |
| 2026-05-04 17:54 | 51.39534 | 2.39910 | 38002 ft | 445 kts | 281° |
| 2026-05-04 17:54 | 51.40703 | 2.30174 | 38002 ft | 445 kts | 281° |
| 2026-05-04 17:55 | 51.41889 | 2.20432 | 38002 ft | 445 kts | 281° |
| 2026-05-04 17:55 | 51.43081 | 2.10696 | 38002 ft | 445 kts | 281° |
| 2026-05-04 17:56 | 51.44260 | 2.00954 | 38001 ft | 445 kts | 281° |
| 2026-05-04 17:56 | 51.45413 | 1.91200 | 38002 ft | 445 kts | 280° |
| 2026-05-04 17:57 | 51.46542 | 1.81432 | 38001 ft | 445 kts | 280° |
| 2026-05-04 17:57 | 51.47672 | 1.71661 | 38002 ft | 445 kts | 280° |
| 2026-05-04 17:58 | 51.48793 | 1.61888 | 38002 ft | 445 kts | 280° |
| 2026-05-04 17:58 | 51.49898 | 1.52116 | 38002 ft | 445 kts | 280° |
| 2026-05-04 17:59 | 51.50986 | 1.42324 | 38002 ft | 445 kts | 280° |
| 2026-05-04 18:00 | 51.52618 | 1.27670 | 37691 ft | 440 kts | 280° |
| 2026-05-04 18:00 | 51.53158 | 1.22820 | 36964 ft | 442 kts | 280° |
| 2026-05-04 18:00 | 51.53695 | 1.17974 | 36414 ft | 439 kts | 280° |
| 2026-05-04 18:00 | 51.54224 | 1.13178 | 35920 ft | 434 kts | 280° |
| 2026-05-04 18:01 | 51.54745 | 1.08431 | 35417 ft | 429 kts | 280° |
| 2026-05-04 18:01 | 51.55259 | 1.03726 | 34899 ft | 425 kts | 279° |
| 2026-05-04 18:01 | 51.55764 | 0.99071 | 34371 ft | 421 kts | 280° |
| 2026-05-04 18:02 | 51.56761 | 0.89876 | 33319 ft | 414 kts | 279° |
| 2026-05-04 18:02 | 51.57247 | 0.85334 | 32797 ft | 410 kts | 279° |
| 2026-05-04 18:02 | 51.57729 | 0.80839 | 32275 ft | 407 kts | 279° |
| 2026-05-04 18:02 | 51.58201 | 0.76362 | 31758 ft | 404 kts | 279° |
| 2026-05-04 18:03 | 51.58662 | 0.71934 | 31243 ft | 400 kts | 279° |
| 2026-05-04 18:03 | 51.59117 | 0.67539 | 30730 ft | 397 kts | 279° |
| 2026-05-04 18:03 | 51.59572 | 0.63186 | 30218 ft | 394 kts | 279° |
| 2026-05-04 18:03 | 51.59896 | 0.60085 | 29853 ft | 392 kts | 279° |
| 2026-05-04 18:04 | 51.60353 | 0.55783 | 29354 ft | 388 kts | 279° |
| 2026-05-04 18:04 | 51.60808 | 0.51517 | 28854 ft | 385 kts | 279° |
| 2026-05-04 18:04 | 51.61705 | 0.43094 | 27861 ft | 379 kts | 279° |
| 2026-05-04 18:05 | 51.62141 | 0.38932 | 27366 ft | 376 kts | 279° |
| 2026-05-04 18:05 | 51.62572 | 0.34794 | 26883 ft | 373 kts | 279° |
| 2026-05-04 18:05 | 51.62999 | 0.30700 | 26391 ft | 370 kts | 279° |
| 2026-05-04 18:05 | 51.63413 | 0.26628 | 25909 ft | 367 kts | 279° |
| 2026-05-04 18:06 | 51.64225 | 0.18578 | 24948 ft | 362 kts | 279° |
| 2026-05-04 18:06 | 51.64772 | 0.14644 | 24465 ft | 359 kts | 289° |
| 2026-05-04 18:06 | 51.65711 | 0.10954 | 23990 ft | 356 kts | 294° |
| 2026-05-04 18:07 | 51.66746 | 0.07343 | 23513 ft | 354 kts | 295° |
| 2026-05-04 18:07 | 51.67782 | 0.03758 | 23053 ft | 351 kts | 295° |
| 2026-05-04 18:07 | 51.68800 | 0.00202 | 22596 ft | 348 kts | 294° |
| 2026-05-04 18:07 | 51.69798 | -0.03341 | 22142 ft | 346 kts | 294° |
| 2026-05-04 18:08 | 51.70787 | -0.06856 | 21682 ft | 344 kts | 294° |
| 2026-05-04 18:08 | 51.71766 | -0.10362 | 21226 ft | 341 kts | 294° |
| 2026-05-04 18:08 | 51.72740 | -0.13839 | 20775 ft | 339 kts | 294° |
| 2026-05-04 18:08 | 51.73706 | -0.17293 | 20323 ft | 337 kts | 294° |
| 2026-05-04 18:09 | 51.75506 | -0.23758 | 19974 ft | 335 kts | 294° |
| 2026-05-04 18:09 | 51.77356 | -0.30408 | 19989 ft | 335 kts | 294° |
| 2026-05-04 18:10 | 51.78306 | -0.33849 | 20001 ft | 335 kts | 294° |
| 2026-05-04 18:10 | 51.79214 | -0.37135 | 20002 ft | 336 kts | 294° |
| 2026-05-04 18:10 | 51.80255 | -0.40514 | 20000 ft | 336 kts | 303° |
| 2026-05-04 18:10 | 51.81809 | -0.43260 | 19986 ft | 332 kts | 323° |
| 2026-05-04 18:11 | 51.83739 | -0.45281 | 19583 ft | 329 kts | 329° |
| 2026-05-04 18:11 | 51.85748 | -0.47151 | 19073 ft | 329 kts | 330° |
| 2026-05-04 18:11 | 51.87708 | -0.48980 | 18614 ft | 328 kts | 329° |
| 2026-05-04 18:11 | 51.89668 | -0.50848 | 18171 ft | 326 kts | 329° |
| 2026-05-04 18:12 | 51.91615 | -0.52722 | 17741 ft | 324 kts | 329° |
| 2026-05-04 18:12 | 51.93548 | -0.54596 | 17312 ft | 322 kts | 329° |
| 2026-05-04 18:12 | 51.95466 | -0.56460 | 16889 ft | 320 kts | 329° |
| 2026-05-04 18:12 | 51.97367 | -0.58311 | 16472 ft | 318 kts | 328° |
| 2026-05-04 18:13 | 51.99258 | -0.60157 | 16053 ft | 316 kts | 328° |
| 2026-05-04 18:13 | 52.01131 | -0.61990 | 15631 ft | 314 kts | 328° |
| 2026-05-04 18:13 | 52.04841 | -0.65630 | 14810 ft | 310 kts | 328° |
| 2026-05-04 18:14 | 52.06681 | -0.67437 | 14397 ft | 308 kts | 328° |
| 2026-05-04 18:14 | 52.08508 | -0.69232 | 13993 ft | 306 kts | 328° |
| 2026-05-04 18:14 | 52.10325 | -0.71023 | 13590 ft | 304 kts | 328° |
| 2026-05-04 18:15 | 52.13923 | -0.74568 | 12760 ft | 300 kts | 328° |
| 2026-05-04 18:15 | 52.17461 | -0.78053 | 11979 ft | 297 kts | 328° |
| 2026-05-04 18:15 | 52.19225 | -0.79798 | 11592 ft | 295 kts | 328° |
| 2026-05-04 18:16 | 52.20970 | -0.81530 | 11196 ft | 294 kts | 328° |
| 2026-05-04 18:16 | 52.22715 | -0.83260 | 10811 ft | 292 kts | 327° |
| 2026-05-04 18:16 | 52.24263 | -0.85354 | 10407 ft | 289 kts | 308° |
| 2026-05-04 18:17 | 52.25666 | -0.91377 | 9624 ft | 285 kts | 281° |
| 2026-05-04 18:17 | 52.26061 | -0.94539 | 9242 ft | 283 kts | 281° |
| 2026-05-04 18:17 | 52.26878 | -1.00801 | 8490 ft | 280 kts | 282° |
| 2026-05-04 18:18 | 52.27294 | -1.03902 | 8114 ft | 279 kts | 282° |
| 2026-05-04 18:18 | 52.27708 | -1.06990 | 7743 ft | 277 kts | 282° |
| 2026-05-04 18:18 | 52.28116 | -1.10058 | 7379 ft | 276 kts | 282° |
| 2026-05-04 18:18 | 52.28526 | -1.13112 | 6996 ft | 274 kts | 282° |
| 2026-05-04 18:19 | 52.29342 | -1.19158 | 6262 ft | 272 kts | 282° |
| 2026-05-04 18:19 | 52.29756 | -1.22161 | 5903 ft | 270 kts | 282° |
| 2026-05-04 18:19 | 52.30166 | -1.25145 | 5543 ft | 268 kts | 282° |
| 2026-05-04 18:20 | 52.30572 | -1.28116 | 5184 ft | 267 kts | 282° |
| 2026-05-04 18:20 | 52.30971 | -1.31068 | 4827 ft | 266 kts | 282° |
| 2026-05-04 18:20 | 52.31348 | -1.34022 | 4463 ft | 264 kts | 281° |
| 2026-05-04 18:20 | 52.31712 | -1.36962 | 4102 ft | 263 kts | 281° |
| 2026-05-04 18:21 | 52.32068 | -1.39887 | 3751 ft | 262 kts | 281° |
| 2026-05-04 18:21 | 52.32422 | -1.42767 | 3403 ft | 260 kts | 281° |
| 2026-05-04 18:21 | 52.32785 | -1.45696 | 3050 ft | 259 kts | 281° |
| 2026-05-04 18:21 | 52.33133 | -1.48513 | 2842 ft | 252 kts | 281° |
| 2026-05-04 18:22 | 52.33472 | -1.51265 | 2716 ft | 242 kts | 281° |
| 2026-05-04 18:22 | 52.33795 | -1.53946 | 2599 ft | 231 kts | 281° |
| 2026-05-04 18:22 | 52.34104 | -1.56453 | 2395 ft | 225 kts | 281° |
| 2026-05-04 18:22 | 52.34408 | -1.58949 | 2103 ft | 223 kts | 281° |
| 2026-05-04 18:23 | 52.34707 | -1.61382 | 1975 ft | 209 kts | 283° |
| 2026-05-04 18:23 | 52.35277 | -1.63428 | 1920 ft | 190 kts | 309° |
| 2026-05-04 18:23 | 52.36263 | -1.64786 | 1953 ft | 185 kts | 326° |
| 2026-05-04 18:23 | 52.37349 | -1.65906 | 1965 ft | 181 kts | 325° |
| 2026-05-04 18:24 | 52.38337 | -1.66983 | 1839 ft | 159 kts | 325° |
| 2026-05-04 18:24 | 52.39198 | -1.67935 | 1626 ft | 139 kts | 325° |
| 2026-05-04 18:24 | 52.39977 | -1.68798 | 1444 ft | 138 kts | 325° |
| 2026-05-04 18:24 | 52.40767 | -1.69675 | 1271 ft | 137 kts | 325° |
| 2026-05-04 18:25 | 52.41559 | -1.70553 | 1089 ft | 137 kts | 325° |
| 2026-05-04 18:25 | 52.42346 | -1.71428 | 908 ft | 137 kts | 325° |
| 2026-05-04 18:25 | 52.43134 | -1.72303 | 727 ft | 136 kts | 325° |
| 2026-05-04 18:25 | 52.43916 | -1.73183 | 509 ft | 136 kts | 325° |
| 2026-05-04 18:26 | 52.44699 | -1.74051 | 368 ft | 136 kts | 326° |
| 2026-05-04 18:26 | 52.45439 | -1.74862 | 329 ft | 106 kts | 327° |
| 2026-05-04 18:26 | 52.45876 | -1.75347 | 323 ft | 53 kts | 327° |
| 2026-05-04 18:26 | 52.46104 | -1.75591 | 315 ft | 25 kts | 325° |
| 2026-05-04 18:27 | 52.46193 | -1.75527 | 313 ft | 17 kts | 56° |
| 2026-05-04 18:27 | 52.46185 | -1.75364 | 309 ft | 18 kts | 139° |
| 2026-05-04 18:27 | 52.46076 | -1.75246 | 310 ft | 20 kts | 148° |
| 2026-05-04 18:27 | 52.45961 | -1.75112 | 311 ft | 20 kts | 145° |
| 2026-05-04 18:28 | 52.45887 | -1.75032 | 312 ft | 8 kts | 146° |
| 2026-05-04 18:28 | 52.45835 | -1.74974 | 313 ft | 11 kts | 146° |
| 2026-05-04 18:28 | 52.45765 | -1.74897 | 315 ft | 14 kts | 146° |
| 2026-05-04 18:28 | 52.45674 | -1.74798 | 320 ft | 18 kts | 146° |
| 2026-05-04 18:29 | 52.45561 | -1.74672 | 325 ft | 22 kts | 145° |
| 2026-05-04 18:29 | 52.45524 | -1.74630 | 325 ft | 6 kts | 146° |
| 2026-05-04 18:29 | 52.45481 | -1.74576 | 326 ft | 9 kts | 127° |
| 2026-05-04 18:29 | 52.45442 | -1.74467 | 327 ft | 13 kts | 117° |
| 2026-05-04 18:30 | 52.45344 | -1.74149 | 325 ft | 18 kts | 116° |
| 2026-05-04 18:30 | 52.45308 | -1.74037 | 327 ft | 5 kts | 119° |
| 2026-05-04 18:30 | 52.45278 | -1.73975 | 327 ft | 9 kts | 139° |
| 2026-05-04 18:31 | 52.45213 | -1.73902 | 327 ft | 13 kts | 146° |
| 2026-05-04 18:31 | 52.45125 | -1.73808 | 328 ft | 17 kts | 149° |
| 2026-05-04 18:31 | 52.45040 | -1.73747 | 327 ft | 7 kts | 153° |
| 2026-05-04 18:31 | 52.44988 | -1.73697 | 329 ft | 7 kts | 146° |
| 2026-05-04 18:32 | 52.44979 | -1.73636 | 328 ft | 7 kts | 63° |
| 2026-05-04 18:32 | 52.44995 | -1.73599 | 325 ft | 1 kts | 53° |
| 2026-05-04 18:32 | 52.44998 | -1.73591 | 329 ft | 1 kts | 53° |
| 2026-05-04 18:32 | 52.45002 | -1.73581 | 326 ft | 0 kts | 54° |
| 2026-05-04 18:33 | 52.45003 | -1.73580 | 326 ft | 0 kts | 54° |